METAR Data
IDs: Format: Raw Decoded Include TAF

Data at: 0130 UTC 24 May 2019

METAR for:KFPK (Charotte/Beach Fld, MI, US)
Text:KFPK 240115Z AUTO 27006KT 10SM CLR 18/10 A3004 RMK AO2 T01750100
Temperature: 17.5°C ( 64°F)
Dewpoint: 10.0°C ( 50°F) [RH = 61%]
Pressure (altimeter):30.04 inches Hg (1017.4 mb)
Winds:from the W (270 degrees) at 7 MPH (6 knots; 3.1 m/s)
Visibility:10 or more sm (16+ km)
Ceiling:at least 12,000 feet AGL
Clouds:sky clear below 12,000 feet AGL
QC Flag:automated observation with no human augmentation

TAF for:KFPK (Charotte/Beach Fld, MI, US)
Text:No data found

METAR for:KLAN (Lansing/Capital City, MI, US)
Text:KLAN 240053Z 28009KT 10SM CLR 18/09 A3003 RMK AO2 SLP167 T01830094
Temperature: 18.3°C ( 65°F)
Dewpoint: 9.4°C ( 49°F) [RH = 56%]
Pressure (altimeter):30.03 inches Hg (1017.0 mb) [Sea level pressure: 1016.7 mb]
Winds:from the W (280 degrees) at 10 MPH (9 knots; 4.6 m/s)
Visibility:10 or more sm (16+ km)
Ceiling:at least 12,000 feet AGL
Clouds:sky clear below 12,000 feet AGL

TAF for:KLAN (Lansing/Capital City, MI, US) issued at 2330 UTC 23 May 2019
Text:KLAN 232330Z 2400/2424 27012G25KT P6SM SCT250
Forecast period:0000 to 0300 UTC 24 May 2019
Forecast type:FROM: standard forecast or significant change
Winds:from the W (270 degrees) at 14 MPH (12 knots; 6.2 m/s) gusting to 29 MPH (25 knots; 12.9 m/s)
Visibility:6 or more sm (10+ km)
Ceiling:at least 12,000 feet AGL
Clouds: scattered clouds at 25000 feet AGL
Text:FM240300 29007KT P6SM FEW150
Forecast period:0300 to 1000 UTC 24 May 2019
Forecast type:FROM: standard forecast or significant change
Winds:from the WNW (290 degrees) at 8 MPH (7 knots; 3.6 m/s)
Visibility:6 or more sm (10+ km)
Ceiling:at least 12,000 feet AGL
Clouds: few clouds at 15000 feet AGL
Text:FM241000 VRB04KT P6SM BKN150
Forecast period:1000 to 1400 UTC 24 May 2019
Forecast type:FROM: standard forecast or significant change
Winds:variable direction winds at 5 MPH (4 knots; 2.1 m/s)
Visibility:6 or more sm (10+ km)
Ceiling:15000 feet AGL
Clouds: broken clouds at 15000 feet AGL
Text:FM241400 09005KT P6SM VCSH BKN090
Forecast period:1400 UTC 24 May 2019 to 0000 UTC 25 May 2019
Forecast type:FROM: standard forecast or significant change
Winds:from the E (90 degrees) at 6 MPH (5 knots; 2.6 m/s)
Visibility:6 or more sm (10+ km)
Ceiling:9000 feet AGL
Clouds: broken clouds at 9000 feet AGL
Weather:VCSH (showers in vicinity)